Time;durP1;ratioP1;P1;durP2;ratioP2;P2;SDS_P1;SDS_P2;PMS_P1;PMS_P2;Temp;Humidity;BMP_temperature;BMP_pressure;BME280_temperature;BME280_humidity;BME280_pressure;Samples;Min_cycle;Max_cycle;Signal;HPM_P1;HPM_P2
2023/04/15 00:00:51;;;;;;;10.10;9.80;;;7.00;99.90;;;;;;5037680;28;20267;-79
2023/04/15 00:03:19;;;;;;;10.40;10.10;;;6.90;99.90;;;;;;5026613;28;20224;-79
2023/04/15 00:05:46;;;;;;;10.23;9.93;;;6.90;99.90;;;;;;5031664;28;20228;-79
2023/04/15 00:08:14;;;;;;;10.20;9.90;;;6.80;99.90;;;;;;5028867;28;20242;-79
2023/04/15 00:10:43;;;;;;;10.10;9.80;;;6.70;99.90;;;;;;5025973;28;20232;-79
2023/04/15 00:13:11;;;;;;;9.93;9.63;;;6.70;99.90;;;;;;5024975;28;20230;-79
2023/04/15 00:15:39;;;;;;;10.00;9.70;;;6.60;99.90;;;;;;5025417;28;20240;-81
2023/04/15 00:18:07;;;;;;;10.10;9.80;;;6.60;99.90;;;;;;5024107;28;20240;-80
2023/04/15 00:20:35;;;;;;;10.03;9.73;;;6.60;99.90;;;;;;5023042;28;20258;-79
2023/04/15 00:23:04;;;;;;;10.03;9.73;;;6.70;99.90;;;;;;5022935;28;20232;-79
2023/04/15 00:25:32;;;;;;;9.90;9.60;;;6.60;99.90;;;;;;5021886;28;20268;-79
2023/04/15 00:27:59;;;;;;;10.10;9.80;;;6.70;99.90;;;;;;5023559;28;20251;-79
2023/04/15 00:30:28;;;;;;;10.10;9.80;;;6.70;99.90;;;;;;5022881;28;20266;-79
2023/04/15 00:32:55;;;;;;;10.20;9.90;;;6.80;99.90;;;;;;5023198;28;20747;-79
2023/04/15 00:35:24;;;;;;;9.97;9.67;;;6.80;99.90;;;;;;5031111;28;20251;-79
2023/04/15 00:37:51;;;;;;;9.83;9.53;;;6.80;99.90;;;;;;5027185;28;20304;-79
2023/04/15 00:40:23;;;;;;;10.03;9.73;;;6.80;99.90;;;;;;5033255;28;20243;-78
2023/04/15 00:42:51;;;;;;;10.00;9.70;;;6.80;99.90;;;;;;5037659;28;20228;-79
2023/04/15 00:45:19;;;;;;;10.00;9.70;;;6.80;99.90;;;;;;5017016;28;20296;-79
2023/04/15 00:47:48;;;;;;;9.90;9.60;;;6.80;99.90;;;;;;5017415;28;20228;-79
2023/04/15 00:50:15;;;;;;;10.10;9.80;;;6.70;99.90;;;;;;5018354;28;20240;-79
2023/04/15 00:52:43;;;;;;;10.10;9.80;;;6.70;99.90;;;;;;5018368;28;20225;-79
2023/04/15 00:55:11;;;;;;;10.30;10.00;;;6.80;99.90;;;;;;5017693;28;20247;-79
2023/04/15 00:57:40;;;;;;;10.20;9.90;;;6.80;99.90;;;;;;5018483;28;20240;-80
2023/04/15 01:00:10;;;;;;;10.00;9.70;;;6.80;99.90;;;;;;5018345;28;20271;-79
2023/04/15 01:02:38;;;;;;;10.10;9.80;;;6.90;99.90;;;;;;5017666;28;20232;-79
2023/04/15 01:05:08;;;;;;;10.00;9.70;;;6.90;99.90;;;;;;5017888;28;20327;-79
2023/04/15 01:07:35;;;;;;;10.10;9.80;;;6.90;99.90;;;;;;5017646;28;20372;-79
2023/04/15 01:10:04;;;;;;;10.33;10.03;;;6.90;99.90;;;;;;5017502;28;20232;-79
2023/04/15 01:12:33;;;;;;;10.10;9.80;;;6.80;99.90;;;;;;5018468;28;20350;-80
2023/04/15 01:15:01;;;;;;;10.17;9.87;;;6.80;99.90;;;;;;5018109;28;20263;-79
2023/04/15 01:17:28;;;;;;;10.40;10.10;;;6.70;99.90;;;;;;5018747;28;20247;-79
2023/04/15 01:19:57;;;;;;;10.47;10.17;;;6.70;99.90;;;;;;5018311;28;20236;-79
2023/04/15 01:22:27;;;;;;;10.30;10.00;;;6.70;99.90;;;;;;5018822;28;20404;-80
2023/04/15 01:25:03;;;;;;;10.30;10.00;;;6.60;99.90;;;;;;5019163;28;20242;-80
2023/04/15 01:27:33;;;;;;;10.23;9.93;;;6.60;99.90;;;;;;5020738;28;20244;-80
2023/04/15 01:30:01;;;;;;;10.23;9.93;;;6.60;99.90;;;;;;5028302;28;20736;-80
2023/04/15 01:32:29;;;;;;;10.03;9.73;;;6.60;99.90;;;;;;5023984;28;20235;-80
2023/04/15 01:34:57;;;;;;;10.27;9.97;;;6.60;99.90;;;;;;5022000;28;20231;-80
2023/04/15 01:37:25;;;;;;;10.00;9.70;;;6.60;99.90;;;;;;5025951;28;20278;-80
2023/04/15 01:39:52;;;;;;;10.20;9.90;;;6.60;99.90;;;;;;5023776;28;20236;-80
2023/04/15 01:42:21;;;;;;;10.23;9.93;;;6.60;99.90;;;;;;5022661;28;20228;-79
2023/04/15 01:44:50;;;;;;;10.20;9.90;;;6.70;99.90;;;;;;5022052;28;20240;-80
2023/04/15 01:47:18;;;;;;;10.10;9.80;;;6.70;99.90;;;;;;5022916;28;20299;-80
2023/04/15 01:49:45;;;;;;;10.20;9.90;;;6.60;99.90;;;;;;5021987;28;20232;-80
2023/04/15 01:52:13;;;;;;;10.20;9.90;;;6.70;99.90;;;;;;5022212;28;20243;-80
2023/04/15 01:54:40;;;;;;;10.40;10.10;;;6.70;99.90;;;;;;5021324;28;20303;-80
2023/04/15 01:57:08;;;;;;;10.10;9.80;;;6.60;99.90;;;;;;5022071;28;20315;-80
2023/04/15 01:59:36;;;;;;;10.50;10.20;;;6.70;99.90;;;;;;5020880;28;20232;-80
2023/04/15 02:02:05;;;;;;;10.40;10.10;;;6.70;99.90;;;;;;5020820;28;20224;-80
2023/04/15 02:04:33;;;;;;;10.30;10.00;;;6.80;99.90;;;;;;5025726;28;20322;-80
2023/04/15 02:07:00;;;;;;;10.20;9.90;;;6.80;99.90;;;;;;5024621;28;20236;-80
2023/04/15 02:09:28;;;;;;;10.40;10.10;;;6.80;99.90;;;;;;5023546;28;20232;-80
2023/04/15 02:11:55;;;;;;;10.30;10.00;;;6.70;99.90;;;;;;5023802;28;20232;-80
2023/04/15 02:14:23;;;;;;;10.30;10.00;;;6.70;99.90;;;;;;5022688;28;20298;-80
2023/04/15 02:16:50;;;;;;;10.20;9.90;;;6.70;99.90;;;;;;5022618;28;20263;-81
2023/04/15 02:19:21;;;;;;;10.30;10.00;;;6.80;99.90;;;;;;5022203;28;20240;-79
2023/04/15 02:21:49;;;;;;;10.30;10.00;;;6.70;99.90;;;;;;5022128;28;20310;-80
2023/04/15 02:24:17;;;;;;;10.07;9.77;;;6.70;99.90;;;;;;5023035;28;20262;-79
2023/04/15 02:26:45;;;;;;;10.20;9.90;;;6.70;99.90;;;;;;5023331;28;20327;-79
2023/04/15 02:29:13;;;;;;;10.27;9.97;;;6.70;99.90;;;;;;5023399;28;20319;-80
2023/04/15 02:31:41;;;;;;;10.10;9.80;;;6.70;99.90;;;;;;5023480;28;20227;-80
2023/04/15 02:34:08;;;;;;;10.30;10.00;;;6.60;99.90;;;;;;5021048;28;20240;-80
2023/04/15 02:36:38;;;;;;;10.13;9.83;;;6.60;99.90;;;;;;5021375;28;20232;-80
2023/04/15 02:39:05;;;;;;;10.30;10.00;;;6.60;99.90;;;;;;5021032;28;20228;-80
2023/04/15 02:41:33;;;;;;;10.30;10.00;;;6.70;99.90;;;;;;5021335;28;20220;-80
2023/04/15 02:44:01;;;;;;;10.00;9.70;;;6.80;99.90;;;;;;5023443;28;20335;-80
2023/04/15 02:46:28;;;;;;;10.00;9.70;;;6.80;99.90;;;;;;5024329;28;20320;-80
2023/04/15 02:48:56;;;;;;;10.17;9.87;;;6.80;99.90;;;;;;5030023;28;20232;-80
2023/04/15 02:51:23;;;;;;;10.20;9.90;;;6.90;99.90;;;;;;5036092;28;20235;-80
2023/04/15 02:53:52;;;;;;;9.97;9.67;;;7.00;99.90;;;;;;5027446;28;20267;-80
2023/04/15 02:56:22;;;;;;;10.23;9.93;;;7.00;99.90;;;;;;5026716;28;20252;-79
2023/04/15 02:58:49;;;;;;;10.00;9.70;;;6.90;99.90;;;;;;5025500;28;20238;-80
2023/04/15 03:01:17;;;;;;;9.90;9.60;;;7.00;99.90;;;;;;5025564;28;20250;-80
2023/04/15 03:03:44;;;;;;;10.00;9.70;;;7.00;99.90;;;;;;5024889;28;20283;-80
2023/04/15 03:06:12;;;;;;;9.87;9.57;;;7.00;99.90;;;;;;5025256;28;20262;-80
2023/04/15 03:08:39;;;;;;;10.10;9.80;;;7.00;99.90;;;;;;5024569;28;20234;-80
2023/04/15 03:11:08;;;;;;;10.00;9.70;;;7.00;99.90;;;;;;5024451;28;20284;-80
2023/04/15 03:13:35;;;;;;;10.30;10.00;;;7.00;99.90;;;;;;5024604;28;20284;-80
2023/04/15 03:16:03;;;;;;;10.20;9.90;;;6.90;99.90;;;;;;5025369;28;20270;-80
2023/04/15 03:18:31;;;;;;;10.50;10.20;;;6.90;99.90;;;;;;5024019;28;20295;-80
2023/04/15 03:20:58;;;;;;;10.27;9.97;;;6.90;99.90;;;;;;5025165;28;20243;-80
2023/04/15 03:23:26;;;;;;;10.10;9.80;;;6.90;99.90;;;;;;5026675;28;20235;-80
2023/04/15 03:25:54;;;;;;;10.13;9.83;;;6.70;99.90;;;;;;5025797;28;20264;-80
2023/04/15 03:28:23;;;;;;;10.37;10.07;;;6.70;99.90;;;;;;5025138;28;20323;-80
2023/04/15 03:30:51;;;;;;;10.20;9.90;;;6.60;99.90;;;;;;5024971;28;20271;-80
2023/04/15 03:33:18;;;;;;;10.37;10.07;;;6.70;99.90;;;;;;5025179;28;20279;-80
2023/04/15 03:35:46;;;;;;;10.20;9.90;;;6.70;99.90;;;;;;5026488;28;20244;-80
2023/04/15 03:38:13;;;;;;;10.20;9.90;;;6.60;99.90;;;;;;5030900;28;20243;-81
2023/04/15 03:40:41;;;;;;;10.30;10.00;;;6.50;99.90;;;;;;5026041;28;20239;-80
2023/04/15 03:43:09;;;;;;;10.20;9.90;;;6.50;99.90;;;;;;5025357;28;20232;-80
2023/04/15 03:45:38;;;;;;;10.13;9.83;;;6.40;99.90;;;;;;5024093;28;20274;-80
2023/04/15 03:48:06;;;;;;;10.10;9.80;;;6.40;99.90;;;;;;5023564;28;20292;-80
2023/04/15 03:50:33;;;;;;;10.10;9.80;;;6.40;99.90;;;;;;5024106;28;20267;-80
2023/04/15 03:53:00;;;;;;;10.10;9.80;;;6.40;99.90;;;;;;5023339;28;20235;-80
2023/04/15 03:55:28;;;;;;;10.10;9.80;;;6.50;99.90;;;;;;5023224;28;20236;-80
2023/04/15 03:57:55;;;;;;;10.20;9.90;;;6.50;99.90;;;;;;5023749;28;20275;-80
2023/04/15 04:00:23;;;;;;;9.90;9.60;;;6.60;99.90;;;;;;5023616;28;20224;-80
2023/04/15 04:02:52;;;;;;;9.97;9.67;;;6.70;99.90;;;;;;5025613;28;20220;-80
2023/04/15 04:05:19;;;;;;;10.00;9.70;;;6.80;99.90;;;;;;5029305;28;20266;-80
2023/04/15 04:07:47;;;;;;;10.00;9.70;;;6.90;99.90;;;;;;5026714;28;20263;-80
2023/04/15 04:10:14;;;;;;;10.07;9.77;;;6.90;99.90;;;;;;5025809;28;20255;-80
2023/04/15 04:12:42;;;;;;;9.97;9.67;;;6.90;99.90;;;;;;5024571;28;20223;-80
2023/04/15 04:15:10;;;;;;;10.03;9.73;;;7.00;99.90;;;;;;5025060;28;20259;-80
2023/04/15 04:17:38;;;;;;;9.93;9.63;;;7.00;99.90;;;;;;5024348;28;20246;-80
2023/04/15 04:20:08;;;;;;;10.17;9.87;;;7.00;99.90;;;;;;5024010;28;20327;-80
2023/04/15 04:22:39;;;;;;;10.30;10.00;;;7.00;99.90;;;;;;5023798;28;20228;-80
2023/04/15 04:25:08;;;;;;;10.20;9.90;;;7.00;99.90;;;;;;5025682;28;20244;-80
2023/04/15 04:27:36;;;;;;;10.27;9.97;;;7.10;99.90;;;;;;5024653;28;20236;-80
2023/04/15 04:30:05;;;;;;;10.00;9.70;;;7.10;99.90;;;;;;5023767;28;20264;-80
2023/04/15 04:32:33;;;;;;;10.17;9.87;;;7.10;99.90;;;;;;5033189;28;20220;-80
2023/04/15 04:35:00;;;;;;;10.20;9.90;;;7.00;99.90;;;;;;5033913;28;20240;-80
2023/04/15 04:37:29;;;;;;;10.40;10.10;;;6.90;99.90;;;;;;5031172;28;20236;-80
2023/04/15 04:39:57;;;;;;;10.17;9.87;;;6.90;99.90;;;;;;5024704;28;20246;-80
2023/04/15 04:42:24;;;;;;;9.97;9.67;;;6.90;99.90;;;;;;5024906;28;20221;-80
2023/04/15 04:44:52;;;;;;;9.87;9.57;;;6.80;99.90;;;;;;5024374;28;20271;-80
2023/04/15 04:47:20;;;;;;;10.20;9.90;;;6.70;99.90;;;;;;5023198;28;20233;-80
2023/04/15 04:49:47;;;;;;;10.20;9.90;;;6.70;99.90;;;;;;5024790;28;20247;-80
2023/04/15 04:52:15;;;;;;;10.00;9.70;;;6.60;99.90;;;;;;5023779;28;20217;-80
2023/04/15 04:54:44;;;;;;;9.93;9.63;;;6.60;99.90;;;;;;5023332;28;20263;-80
2023/04/15 04:57:12;;;;;;;10.30;10.00;;;6.60;99.90;;;;;;5022822;28;20323;-80
2023/04/15 04:59:39;;;;;;;10.17;9.87;;;6.70;99.90;;;;;;5022808;28;20239;-80
2023/04/15 05:02:07;;;;;;;10.20;9.90;;;6.80;99.90;;;;;;5022598;28;20319;-80
2023/04/15 05:04:35;;;;;;;10.40;10.10;;;6.80;99.90;;;;;;5025679;28;20243;-80
2023/04/15 05:07:03;;;;;;;10.13;9.83;;;6.80;99.90;;;;;;5027458;28;20239;-80
2023/04/15 05:09:32;;;;;;;10.23;9.93;;;6.80;99.90;;;;;;5024209;28;20268;-79
2023/04/15 05:12:01;;;;;;;10.30;10.00;;;6.80;99.90;;;;;;5023359;28;20227;-80
2023/04/15 05:14:28;;;;;;;10.30;10.00;;;6.80;99.90;;;;;;5023122;28;20250;-80
2023/04/15 05:16:56;;;;;;;10.20;9.90;;;6.70;99.90;;;;;;5023375;28;20256;-80
2023/04/15 05:19:24;;;;;;;10.40;10.10;;;6.70;99.90;;;;;;5023432;28;20244;-80
2023/04/15 05:21:51;;;;;;;10.10;9.80;;;6.80;99.90;;;;;;5022974;28;20230;-79
2023/04/15 05:24:18;;;;;;;10.13;9.83;;;6.80;99.90;;;;;;5023038;28;20240;-80
2023/04/15 05:26:46;;;;;;;10.27;9.97;;;6.90;99.90;;;;;;5022635;28;20339;-80
2023/04/15 05:29:15;;;;;;;10.20;9.90;;;6.90;99.90;;;;;;5023670;28;20267;-80
2023/04/15 05:31:43;;;;;;;10.40;10.10;;;7.00;99.90;;;;;;5024490;28;20232;-79
2023/04/15 05:34:11;;;;;;;10.23;9.93;;;6.90;99.90;;;;;;5024662;28;20254;-80
2023/04/15 05:36:38;;;;;;;10.00;9.70;;;6.90;99.90;;;;;;5024595;28;20232;-79
2023/04/15 05:39:06;;;;;;;10.00;9.70;;;6.90;99.90;;;;;;5023044;28;20240;-80
2023/04/15 05:41:33;;;;;;;10.07;9.77;;;6.90;99.90;;;;;;5024309;28;20232;-80
2023/04/15 05:44:01;;;;;;;10.20;9.90;;;7.00;99.90;;;;;;5025345;28;20330;-80
2023/04/15 05:46:29;;;;;;;10.20;9.90;;;7.00;99.90;;;;;;5023474;28;20246;-80
2023/04/15 05:48:57;;;;;;;10.00;9.70;;;7.10;99.90;;;;;;5024787;28;20220;-79
2023/04/15 05:51:24;;;;;;;9.90;9.60;;;7.10;99.90;;;;;;5022362;28;20315;-79
2023/04/15 05:53:52;;;;;;;9.80;9.50;;;7.10;99.90;;;;;;5022047;28;20239;-79
2023/04/15 05:56:20;;;;;;;9.90;9.60;;;7.00;99.90;;;;;;5023057;28;20323;-79
2023/04/15 05:58:47;;;;;;;9.93;9.63;;;7.10;99.90;;;;;;5022761;28;20246;-79
2023/04/15 06:01:15;;;;;;;10.20;9.90;;;7.20;99.90;;;;;;5022415;28;20276;-78
2023/04/15 06:03:45;;;;;;;10.00;9.70;;;7.30;99.90;;;;;;5019901;28;20240;-78
2023/04/15 06:06:13;;;;;;;9.97;9.67;;;7.40;99.90;;;;;;5019835;28;20236;-79
2023/04/15 06:08:40;;;;;;;10.00;9.70;;;7.50;99.90;;;;;;5019331;28;20240;-79
2023/04/15 06:11:08;;;;;;;9.83;9.53;;;7.50;99.90;;;;;;5019307;28;20275;-79
2023/04/15 06:13:35;;;;;;;9.97;9.67;;;7.60;99.90;;;;;;5019169;28;20293;-79
2023/04/15 06:16:03;;;;;;;9.90;9.60;;;7.70;99.90;;;;;;5019074;28;20387;-79
2023/04/15 06:18:31;;;;;;;9.90;9.60;;;7.80;99.90;;;;;;5022819;28;20331;-79
2023/04/15 06:21:00;;;;;;;10.10;9.80;;;7.80;99.90;;;;;;5022852;28;20240;-78
2023/04/15 06:23:27;;;;;;;10.20;9.90;;;7.80;99.90;;;;;;5023198;28;20240;-79
2023/04/15 06:25:55;;;;;;;10.17;9.87;;;7.70;99.90;;;;;;5022182;28;20239;-79
2023/04/15 06:28:22;;;;;;;10.33;10.03;;;7.70;99.90;;;;;;5022752;28;20240;-79
2023/04/15 06:30:50;;;;;;;10.30;10.00;;;7.70;99.90;;;;;;5022371;28;20243;-79
2023/04/15 06:33:18;;;;;;;10.33;10.03;;;7.70;99.90;;;;;;5022087;28;20239;-79
2023/04/15 06:35:46;;;;;;;10.20;9.90;;;7.70;99.90;;;;;;5022732;28;20289;-79
2023/04/15 06:38:15;;;;;;;10.27;9.97;;;7.70;99.90;;;;;;5022125;28;20246;-78
2023/04/15 06:40:43;;;;;;;9.90;9.60;;;7.70;99.90;;;;;;5022716;28;20224;-79
2023/04/15 06:43:10;;;;;;;10.17;9.87;;;7.80;99.90;;;;;;5022783;28;20236;-79
2023/04/15 06:45:38;;;;;;;10.07;9.77;;;7.80;99.90;;;;;;5021979;28;20263;-78
2023/04/15 06:48:06;;;;;;;9.90;9.60;;;7.80;99.90;;;;;;5022700;28;20255;-78
2023/04/15 06:50:34;;;;;;;10.37;10.07;;;7.80;99.90;;;;;;5022588;28;20232;-79
2023/04/15 06:53:02;;;;;;;10.37;10.07;;;7.80;99.90;;;;;;5023941;28;20234;-79
2023/04/15 06:55:32;;;;;;;10.20;9.90;;;8.00;99.90;;;;;;5029770;28;20283;-80
2023/04/15 06:58:00;;;;;;;10.20;9.90;;;8.00;99.90;;;;;;5026427;28;20232;-78
2023/04/15 07:00:28;;;;;;;10.20;9.90;;;8.10;99.90;;;;;;5029796;28;20219;-80
2023/04/15 07:02:56;;;;;;;10.17;9.87;;;8.10;99.90;;;;;;5025475;28;20239;-79
2023/04/15 07:05:24;;;;;;;10.00;9.70;;;8.10;99.90;;;;;;5025234;28;21071;-80
2023/04/15 07:07:52;;;;;;;10.20;9.90;;;8.20;99.90;;;;;;5025499;28;20308;-78
2023/04/15 07:10:19;;;;;;;10.30;10.00;;;8.40;99.90;;;;;;5029262;28;20238;-79
2023/04/15 07:12:49;;;;;;;10.20;9.90;;;8.50;99.90;;;;;;5027131;28;20239;-80
2023/04/15 07:15:17;;;;;;;10.30;10.00;;;8.40;99.90;;;;;;5027431;28;20231;-80
2023/04/15 07:17:44;;;;;;;10.20;9.90;;;8.40;99.90;;;;;;5034331;28;20232;-80
2023/04/15 07:20:13;;;;;;;10.30;10.00;;;8.50;99.90;;;;;;5029422;28;20259;-80
2023/04/15 07:22:40;;;;;;;10.03;9.73;;;8.40;99.90;;;;;;5028180;28;20238;-80
2023/04/15 07:25:09;;;;;;;10.43;10.13;;;8.50;99.90;;;;;;5027677;28;20267;-81
2023/04/15 07:27:37;;;;;;;10.43;10.13;;;8.50;99.90;;;;;;5030071;28;20267;-80
2023/04/15 07:30:08;;;;;;;10.40;10.10;;;8.50;99.90;;;;;;5030617;28;20226;-80
2023/04/15 07:32:35;;;;;;;10.40;10.10;;;8.60;99.90;;;;;;5028686;28;20237;-80
2023/04/15 07:35:03;;;;;;;10.17;9.87;;;8.60;99.90;;;;;;5031247;28;20251;-80
2023/04/15 07:37:30;;;;;;;10.30;10.00;;;8.60;99.90;;;;;;5036572;28;20243;-80
2023/04/15 07:39:58;;;;;;;10.30;10.00;;;8.70;99.90;;;;;;5036035;28;20266;-80
2023/04/15 07:42:25;;;;;;;10.30;10.00;;;8.90;99.90;;;;;;5035113;28;20264;-80
2023/04/15 07:44:53;;;;;;;10.03;9.73;;;9.00;99.90;;;;;;5034293;28;20242;-80
2023/04/15 07:47:22;;;;;;;10.37;10.07;;;8.90;99.90;;;;;;5034641;28;20228;-80
2023/04/15 07:49:50;;;;;;;10.43;10.13;;;8.80;99.90;;;;;;5034823;28;20216;-80
2023/04/15 07:52:17;;;;;;;10.70;10.40;;;8.80;99.90;;;;;;5033679;28;20247;-80
2023/04/15 07:54:45;;;;;;;10.50;10.20;;;8.80;99.90;;;;;;5031552;28;20231;-80
2023/04/15 07:57:13;;;;;;;10.47;10.17;;;8.70;99.90;;;;;;5028712;28;20736;-80
2023/04/15 07:59:40;;;;;;;10.17;9.87;;;8.70;99.90;;;;;;5031810;28;20238;-80
2023/04/15 08:02:08;;;;;;;10.40;10.10;;;8.80;99.90;;;;;;5036073;28;20232;-80
2023/04/15 08:04:37;;;;;;;10.20;9.90;;;8.70;99.90;;;;;;5034811;28;20265;-80
2023/04/15 08:07:04;;;;;;;10.13;9.83;;;8.70;99.90;;;;;;5035369;28;20232;-80
2023/04/15 08:09:32;;;;;;;10.40;10.10;;;8.80;99.90;;;;;;5032463;28;20242;-79
2023/04/15 08:11:59;;;;;;;10.20;9.90;;;8.90;99.90;;;;;;5034772;28;20232;-79
2023/04/15 08:14:27;;;;;;;10.53;10.23;;;9.10;99.90;;;;;;5033908;28;20246;-79
2023/04/15 08:16:55;;;;;;;10.37;10.07;;;9.10;99.90;;;;;;5033849;28;20243;-79
2023/04/15 08:19:23;;;;;;;10.40;10.10;;;9.00;99.90;;;;;;5034198;28;20224;-79
2023/04/15 08:21:52;;;;;;;10.70;10.40;;;8.90;99.90;;;;;;5034708;28;20220;-79
2023/04/15 08:24:20;;;;;;;10.33;10.03;;;8.80;99.90;;;;;;5034764;28;20248;-79
2023/04/15 08:26:47;;;;;;;10.20;9.90;;;8.70;99.90;;;;;;5035331;28;20220;-79
2023/04/15 08:29:15;;;;;;;10.43;10.13;;;8.70;99.90;;;;;;5035090;28;20232;-79
2023/04/15 08:31:42;;;;;;;10.47;10.17;;;8.60;99.90;;;;;;5034647;28;20240;-79
2023/04/15 08:34:10;;;;;;;10.30;10.00;;;8.50;99.90;;;;;;5035256;28;21071;-80
2023/04/15 08:36:37;;;;;;;9.90;9.60;;;8.40;99.90;;;;;;5035490;28;20236;-80
2023/04/15 08:39:07;;;;;;;10.00;9.70;;;8.20;99.90;;;;;;5034834;28;20233;-79
2023/04/15 08:41:41;;;;;;;10.20;9.90;;;8.10;99.90;;;;;;5034705;28;20236;-80
2023/04/15 08:44:10;;;;;;;9.90;9.60;;;8.10;99.90;;;;;;5035024;28;20246;-78
2023/04/15 08:46:39;;;;;;;10.00;9.70;;;8.00;99.90;;;;;;5034787;28;20287;-79
2023/04/15 08:49:11;;;;;;;10.07;9.77;;;8.10;99.90;;;;;;5034999;28;20228;-79
2023/04/15 08:51:40;;;;;;;9.90;9.60;;;8.20;99.90;;;;;;5035466;28;20220;-79
2023/04/15 08:54:09;;;;;;;10.07;9.77;;;8.20;99.90;;;;;;5034234;28;20251;-79
2023/04/15 08:56:39;;;;;;;9.90;9.60;;;8.10;99.90;;;;;;5035640;28;20235;-79
2023/04/15 08:59:07;;;;;;;10.50;10.20;;;8.10;99.90;;;;;;5034108;28;20255;-79
2023/04/15 09:01:36;;;;;;;10.17;9.87;;;8.00;99.90;;;;;;5034617;28;20232;-79
2023/04/15 09:04:06;;;;;;;10.30;10.00;;;8.00;99.90;;;;;;5035178;28;20229;-79
2023/04/15 09:06:34;;;;;;;10.17;9.87;;;8.00;99.90;;;;;;5035003;28;20239;-79
2023/04/15 09:09:02;;;;;;;10.30;10.00;;;8.00;99.90;;;;;;5033156;28;20236;-79
2023/04/15 09:11:32;;;;;;;10.10;9.80;;;8.00;99.90;;;;;;5028920;28;20295;-79
2023/04/15 09:13:59;;;;;;;10.27;9.97;;;8.00;99.90;;;;;;5027564;28;20236;-79
2023/04/15 09:16:27;;;;;;;10.30;10.00;;;8.00;99.90;;;;;;5032567;28;20239;-79
2023/04/15 09:18:58;;;;;;;10.50;10.20;;;8.00;99.90;;;;;;5027520;28;20282;-79
2023/04/15 09:21:26;;;;;;;10.00;9.70;;;8.00;99.90;;;;;;5027397;28;20272;-79
2023/04/15 09:23:59;;;;;;;10.50;10.20;;;8.00;99.90;;;;;;5026687;28;20240;-79
2023/04/15 09:26:39;;;;;;;10.43;10.13;;;8.10;99.90;;;;;;5027224;28;20239;-79
2023/04/15 09:29:08;;;;;;;10.47;10.17;;;8.00;99.90;;;;;;5026477;28;20239;-79
2023/04/15 09:31:36;;;;;;;10.40;10.10;;;8.10;99.90;;;;;;5029508;28;20232;-79
2023/04/15 09:34:03;;;;;;;10.40;10.10;;;8.10;99.90;;;;;;5034036;28;20242;-79
2023/04/15 09:36:39;;;;;;;10.20;9.90;;;8.10;99.90;;;;;;5031260;28;20232;-79
2023/04/15 09:39:06;;;;;;;10.37;10.07;;;8.10;99.90;;;;;;5027565;28;20283;-80
2023/04/15 09:41:34;;;;;;;10.23;9.93;;;8.20;99.90;;;;;;5026902;28;20315;-79
2023/04/15 09:44:02;;;;;;;10.10;9.80;;;8.30;99.90;;;;;;5026029;28;20310;-80
2023/04/15 09:46:43;;;;;;;10.20;9.90;;;8.30;99.90;;;;;;5028195;28;20243;-80
2023/04/15 09:49:12;;;;;;;10.10;9.80;;;8.10;99.90;;;;;;5025927;28;20247;-79
2023/04/15 09:51:39;;;;;;;10.20;9.90;;;8.00;99.90;;;;;;5025710;28;20319;-79
2023/04/15 09:54:07;;;;;;;10.50;10.20;;;7.90;99.90;;;;;;5025703;28;20250;-80
2023/04/15 09:56:37;;;;;;;10.30;10.00;;;7.90;99.90;;;;;;5027203;28;20224;-79
2023/04/15 09:59:06;;;;;;;10.30;10.00;;;7.80;99.90;;;;;;5025362;28;20279;-79
2023/04/15 10:01:34;;;;;;;10.07;9.77;;;7.80;99.90;;;;;;5027137;28;20243;-80
2023/04/15 10:04:05;;;;;;;9.70;9.40;;;7.90;99.90;;;;;;5024869;28;20236;-79
2023/04/15 10:06:34;;;;;;;9.80;9.50;;;8.00;99.90;;;;;;5025785;28;20240;-79
2023/04/15 10:09:02;;;;;;;10.00;9.70;;;7.90;99.90;;;;;;5025857;28;20256;-79
2023/04/15 10:11:30;;;;;;;9.73;9.43;;;7.80;99.90;;;;;;5025261;28;20240;-79
2023/04/15 10:13:58;;;;;;;9.90;9.60;;;7.70;99.90;;;;;;5025666;28;20279;-79
2023/04/15 10:16:28;;;;;;;9.97;9.67;;;7.70;99.90;;;;;;5025832;28;20216;-79
2023/04/15 10:18:58;;;;;;;9.97;9.67;;;7.60;99.90;;;;;;5025306;28;20240;-79
2023/04/15 10:21:25;;;;;;;10.00;9.70;;;7.60;99.90;;;;;;5024828;28;20251;-79
2023/04/15 10:23:53;;;;;;;9.93;9.63;;;7.60;99.90;;;;;;5025576;28;20242;-79
2023/04/15 10:26:21;;;;;;;9.87;9.57;;;7.60;99.90;;;;;;5026690;28;20256;-80
2023/04/15 10:28:48;;;;;;;10.17;9.87;;;7.50;99.90;;;;;;5025686;28;20323;-80
2023/04/15 10:31:17;;;;;;;9.43;9.13;;;7.50;99.90;;;;;;5027970;28;20303;-81
2023/04/15 10:33:47;;;;;;;9.97;9.67;;;7.50;99.90;;;;;;5034490;28;20268;-81
2023/04/15 10:36:15;;;;;;;9.97;9.67;;;7.50;99.90;;;;;;5033451;28;20255;-80
2023/04/15 10:38:45;;;;;;;9.80;9.50;;;7.60;99.90;;;;;;5034209;28;20325;-80
2023/04/15 10:41:15;;;;;;;10.03;9.73;;;7.60;99.90;;;;;;5034829;28;20250;-79
2023/04/15 10:43:51;;;;;;;9.67;9.37;;;7.60;99.90;;;;;;5031169;28;20248;-79
2023/04/15 10:46:36;;;;;;;10.00;9.70;;;7.70;99.90;;;;;;5031508;28;20224;-79
2023/04/15 10:49:11;;;;;;;9.97;9.67;;;7.60;99.90;;;;;;5034778;28;20306;-79
2023/04/15 10:51:41;;;;;;;9.87;9.57;;;7.60;99.90;;;;;;5037942;28;20234;-79
2023/04/15 10:54:14;;;;;;;10.10;9.80;;;7.60;99.90;;;;;;5037973;28;20232;-79
2023/04/15 10:56:43;;;;;;;10.10;9.80;;;7.60;99.90;;;;;;5037936;28;20226;-79
2023/04/15 10:59:11;;;;;;;9.87;9.57;;;7.50;99.90;;;;;;5037077;28;20215;-79
2023/04/15 11:01:52;;;;;;;10.37;10.07;;;7.60;99.90;;;;;;5037745;28;20224;-79
2023/04/15 11:04:56;;;;;;;10.03;9.73;;;7.60;99.90;;;;;;5040777;28;20266;-79
2023/04/15 11:07:38;;;;;;;10.00;9.70;;;7.60;99.90;;;;;;5037841;28;20259;-79
2023/04/15 11:10:54;;;;;;;9.87;9.57;;;7.70;99.90;;;;;;5024703;28;20268;-78
2023/04/15 11:13:27;;;;;;;10.13;9.83;;;7.70;99.90;;;;;;5041157;28;20236;-79
2023/04/15 11:16:00;;;;;;;9.80;9.50;;;7.60;99.90;;;;;;5040554;28;20326;-79
2023/04/15 11:18:33;;;;;;;9.80;9.50;;;7.70;99.90;;;;;;5040657;28;20299;-79
2023/04/15 11:21:06;;;;;;;9.97;9.67;;;7.80;99.90;;;;;;5040811;28;20240;-78
2023/04/15 11:23:37;;;;;;;9.80;9.50;;;7.90;99.90;;;;;;5037802;28;20231;-79
2023/04/15 11:26:08;;;;;;;9.93;9.63;;;8.10;99.90;;;;;;5038219;28;20287;-79
2023/04/15 11:28:37;;;;;;;10.10;9.80;;;8.20;99.90;;;;;;5040195;28;20231;-79
2023/04/15 11:31:10;;;;;;;10.17;9.87;;;8.10;99.90;;;;;;5040328;28;20224;-79
2023/04/15 11:33:55;;;;;;;9.87;9.57;;;8.10;99.90;;;;;;5039814;28;20276;-79
2023/04/15 11:36:29;;;;;;;9.70;9.40;;;7.90;99.90;;;;;;5029374;28;20282;-79
2023/04/15 11:38:58;;;;;;;9.70;9.40;;;7.80;99.90;;;;;;5029830;28;20227;-79
2023/04/15 11:41:29;;;;;;;9.90;9.60;;;7.60;99.90;;;;;;5036968;28;20216;-79
2023/04/15 11:43:56;;;;;;;9.70;9.40;;;7.70;99.90;;;;;;5020456;28;20263;-79
2023/04/15 11:46:56;;;;;;;9.77;9.47;;;7.80;99.90;;;;;;5077046;22;20247;-84
2023/04/15 11:52:49;;;;;;;9.67;9.37;;;8.00;99.90;;;;;;5014602;28;20236;-84
2023/04/15 11:56:04;;;;;;;9.73;9.43;;;8.00;99.90;;;;;;5021849;28;20232;-84
2023/04/15 12:05:42;;;;;;;9.80;9.50;;;8.00;99.90;;;;;;5039489;28;20216;-82
2023/04/15 12:09:39;;;;;;;9.60;9.30;;;8.00;99.90;;;;;;4964417;28;20248;-85
2023/04/15 12:28:12;;;;;;;;;;;;;;;;;;;;;
2023/04/15 12:31:24;;;;;;;9.60;9.30;;;8.30;99.90;;;;;;4951940;28;20262;-85
2023/04/15 12:44:35;;;;;;;9.80;9.50;;;8.50;99.90;;;;;;4958843;28;20272;-85
2023/04/15 12:48:14;;;;;;;;;;;;;;;;;;;;;
2023/04/15 12:58:21;;;;;;;9.87;9.57;;;8.80;99.90;;;;;;4915487;28;20257;-85
2023/04/15 13:01:25;;;;;;;9.80;9.50;;;8.70;99.90;;;;;;5019306;28;20239;-85
2023/04/15 13:04:35;;;;;;;;;;;;;;;;;;;;;
2023/04/15 13:15:04;;;;;;;9.80;9.50;;;8.60;99.90;;;;;;4937807;29;20248;-85
2023/04/15 13:18:33;;;;;;;9.70;9.40;;;8.50;99.90;;;;;;4962823;28;20243;-85
2023/04/15 13:21:45;;;;;;;9.67;9.37;;;8.40;99.90;;;;;;5020700;28;20236;-85
2023/04/15 13:25:07;;;;;;;9.60;9.30;;;8.50;99.90;;;;;;5020492;28;20740;-84
2023/04/15 13:28:07;;;;;;;9.67;9.37;;;8.60;99.90;;;;;;5019724;28;20232;-85
2023/04/15 13:34:00;;;;;;;9.60;9.30;;;8.90;99.90;;;;;;5018891;28;20231;-84
2023/04/15 13:37:05;;;;;;;9.53;9.23;;;8.90;99.90;;;;;;5020869;28;20271;-85
2023/04/15 13:39:54;;;;;;;9.80;9.50;;;8.90;99.90;;;;;;5017534;28;20251;-84
2023/04/15 13:46:38;;;;;;;9.50;9.20;;;8.90;99.90;;;;;;5022695;28;20255;-83
2023/04/15 13:53:01;;;;;;;9.80;9.50;;;8.70;99.90;;;;;;4988244;28;20232;-84
2023/04/15 13:55:45;;;;;;;;;;;;;;;;;;;;;
2023/04/15 13:58:49;;;;;;;9.63;9.33;;;8.60;99.90;;;;;;5019320;28;20322;-85
2023/04/15 14:01:42;;;;;;;9.67;9.37;;;8.60;99.90;;;;;;5018763;28;20243;-85
2023/04/15 14:11:24;;;;;;;9.70;9.40;;;8.60;99.90;;;;;;5006996;28;20216;-85
2023/04/15 14:18:00;;;;;;;9.83;9.53;;;8.60;99.90;;;;;;5020647;28;20216;-85
2023/04/15 14:27:33;;;;;;;9.60;9.30;;;8.40;99.90;;;;;;4994065;28;20224;-86
2023/04/15 14:33:51;;;;;;;9.67;9.37;;;8.20;99.90;;;;;;4993474;28;20231;-85
2023/04/15 14:42:34;;;;;;;9.70;9.40;;;8.10;99.90;;;;;;5018161;28;20239;-86